Terminal Aerodrome Forecast
Issued by NWS

Current Version | Previous Version | Text Only | Print | Product List | Glossary On
Versions: 1 2 3 4 5 6 7 8 9 10 11 12 13 14 15 16
000
FTUS41 KAKQ 021748
TAFPHF
TAF
KPHF 021748Z 0218/0318 23010KT 6SM BR SCT050 OVC080
     FM022000 26008KT P6SM BKN035 OVC060
     FM022200 28008KT 5SM SHRA VCTS SCT025 OVC040CB
      TEMPO 0222/0224 VRB15G25KT 2SM TSRA OVC015CB
     FM030600 06005KT 3SM -SHRA OVC009=

USA.gov is the U.S. government's official web portal to all federal, state and local government web resources and services.